createdAt,value
2022-11-25T00:01:29.310Z,14.20
2022-11-25T00:03:57.019Z,12.90
2022-11-25T00:06:26.190Z,14.40
2022-11-25T00:08:58.260Z,14.95
2022-11-25T00:11:25.151Z,13.73
2022-11-25T00:13:51.681Z,18.35
2022-11-25T00:16:20.734Z,14.60
2022-11-25T00:18:49.308Z,14.02
2022-11-25T00:21:18.341Z,16.90
2022-11-25T00:23:49.914Z,11.43
2022-11-25T00:26:16.779Z,12.32
2022-11-25T00:28:45.458Z,15.15
2022-11-25T00:31:17.167Z,11.93
2022-11-25T00:33:44.319Z,14.75
2022-11-25T00:36:20.746Z,12.10
2022-11-25T00:38:47.232Z,17.38
2022-11-25T00:41:32.814Z,15.48
2022-11-25T00:44:17.522Z,15.68
2022-11-25T00:46:43.883Z,16.13
2022-11-25T00:49:10.305Z,16.25
2022-11-25T00:51:36.628Z,18.95
2022-11-25T00:54:03.064Z,11.00
2022-11-25T00:56:30.269Z,18.30
2022-11-25T00:58:56.684Z,12.80
2022-11-25T01:01:23.159Z,14.75
2022-11-25T01:03:51.094Z,15.68
2022-11-25T01:06:17.644Z,13.23
2022-11-25T01:08:44.121Z,12.77
2022-11-25T01:11:12.936Z,12.32
2022-11-25T01:13:39.663Z,15.00
2022-11-25T01:16:07.588Z,15.23
2022-11-25T01:18:34.755Z,16.38
2022-11-25T01:21:16.402Z,11.98
2022-11-25T01:23:43.365Z,13.02
2022-11-25T01:26:15.596Z,11.75
2022-11-25T01:28:42.095Z,10.95
2022-11-25T01:31:17.759Z,10.75
2022-11-25T01:33:45.821Z,10.48
2022-11-25T01:36:15.431Z,14.65
2022-11-25T01:38:42.762Z,10.00
2022-11-25T01:41:13.109Z,10.52
2022-11-25T01:43:40.429Z,13.60
2022-11-25T01:46:25.198Z,14.15
2022-11-25T01:48:51.488Z,15.02
2022-11-25T01:51:34.194Z,12.02
2022-11-25T01:54:03.412Z,15.45
2022-11-25T01:56:36.000Z,12.73
2022-11-25T01:59:02.869Z,8.60
2022-11-25T02:01:29.324Z,11.65
2022-11-25T02:03:57.395Z,15.13
2022-11-25T02:06:27.960Z,11.75
2022-11-25T02:08:58.668Z,11.25
2022-11-25T02:11:28.278Z,15.25
2022-11-25T02:13:54.870Z,16.02
2022-11-25T02:16:21.340Z,11.93
2022-11-25T02:18:49.603Z,13.88
2022-11-25T02:21:22.977Z,11.52
2022-11-25T02:23:57.353Z,14.65
2022-11-25T02:26:23.862Z,9.35
2022-11-25T02:28:50.371Z,12.02
2022-11-25T02:31:21.700Z,13.88
2022-11-25T02:33:48.534Z,13.32
2022-11-25T02:36:18.766Z,19.38
2022-11-25T02:38:53.950Z,12.52
2022-11-25T02:41:34.669Z,12.55
2022-11-25T02:44:01.849Z,8.73
2022-11-25T02:46:29.202Z,11.90
2022-11-25T02:49:08.867Z,13.13
2022-11-25T02:51:36.892Z,10.50
2022-11-25T02:54:03.335Z,11.82
2022-11-25T02:56:32.897Z,14.20
2022-11-25T02:59:00.087Z,12.13
2022-11-25T03:01:27.037Z,11.10
2022-11-25T03:03:53.493Z,8.43
2022-11-25T03:06:19.918Z,9.48
2022-11-25T03:08:46.219Z,11.48
2022-11-25T03:11:12.579Z,10.82
2022-11-25T03:13:39.392Z,10.23
2022-11-25T03:16:06.094Z,12.88
2022-11-25T03:18:32.485Z,14.35
2022-11-25T03:20:59.011Z,9.07
2022-11-25T03:23:25.765Z,11.25
2022-11-25T03:25:52.231Z,13.55
2022-11-25T03:28:18.564Z,9.10
2022-11-25T03:30:44.912Z,11.23
2022-11-25T03:33:11.287Z,9.55
2022-11-25T03:35:37.573Z,9.85
2022-11-25T03:38:04.079Z,11.63
2022-11-25T03:40:30.374Z,7.72
2022-11-25T03:42:56.752Z,11.40
2022-11-25T03:45:23.120Z,10.68
2022-11-25T03:47:49.460Z,13.40
2022-11-25T03:50:16.484Z,11.23
2022-11-25T03:52:42.860Z,11.70
2022-11-25T03:55:12.460Z,15.05
2022-11-25T03:57:38.935Z,8.73
2022-11-25T04:00:06.266Z,11.73
2022-11-25T04:02:32.780Z,13.15
2022-11-25T04:04:59.231Z,9.20
2022-11-25T04:07:25.841Z,8.32
2022-11-25T04:09:52.164Z,9.70
2022-11-25T04:12:36.897Z,13.07
2022-11-25T04:15:04.042Z,6.82
2022-11-25T04:17:30.456Z,10.73
2022-11-25T04:19:56.802Z,8.65
2022-11-25T04:22:23.107Z,10.98
2022-11-25T04:24:49.445Z,11.13
2022-11-25T04:27:15.799Z,9.15
2022-11-25T04:29:42.137Z,14.05
2022-11-25T04:32:08.540Z,8.82
2022-11-25T04:34:35.158Z,16.58
2022-11-25T04:37:01.624Z,7.88
2022-11-25T04:39:27.971Z,10.15
2022-11-25T04:42:17.166Z,7.43
2022-11-25T04:44:55.900Z,7.40
2022-11-25T04:49:56.832Z,11.75
2022-11-25T04:52:23.302Z,8.70
2022-11-25T04:54:49.674Z,7.80
2022-11-25T04:57:16.426Z,9.75
2022-11-25T04:59:43.779Z,10.00
2022-11-25T05:02:27.985Z,9.77
2022-11-25T05:04:56.562Z,15.77
2022-11-25T05:07:25.182Z,9.40
2022-11-25T05:09:51.650Z,14.30
2022-11-25T05:12:21.479Z,8.80
2022-11-25T05:14:48.937Z,11.70
2022-11-25T05:17:22.327Z,8.43
2022-11-25T05:19:49.966Z,8.85
2022-11-25T05:22:19.353Z,11.50
2022-11-25T05:24:45.949Z,8.95
2022-11-25T05:27:12.337Z,7.38
2022-11-25T05:29:38.914Z,8.75
2022-11-25T05:32:06.289Z,10.02
2022-11-25T05:34:32.630Z,7.28
2022-11-25T05:36:59.208Z,12.38
2022-11-25T05:39:25.947Z,10.70
2022-11-25T05:41:52.254Z,11.25
2022-11-25T05:44:22.852Z,11.15
2022-11-25T05:46:49.639Z,10.68
2022-11-25T05:49:16.540Z,12.32
2022-11-25T05:51:42.966Z,10.95
2022-11-25T05:54:09.311Z,8.82
2022-11-25T05:56:36.179Z,9.93
2022-11-25T05:59:03.725Z,9.02
2022-11-25T06:01:30.421Z,10.48
2022-11-25T06:04:00.863Z,9.93
2022-11-25T06:06:27.633Z,12.25
2022-11-25T06:08:53.996Z,9.00
2022-11-25T06:11:20.401Z,10.95
2022-11-25T06:13:46.859Z,9.35
2022-11-25T06:16:16.491Z,14.35
2022-11-25T06:18:43.257Z,8.15
2022-11-25T06:21:10.724Z,11.55
2022-11-25T06:23:38.056Z,13.07
2022-11-25T06:26:13.868Z,12.98
2022-11-25T06:31:08.901Z,11.55
2022-11-25T06:33:36.198Z,8.77
2022-11-25T06:36:05.016Z,10.73
2022-11-25T06:38:31.437Z,9.00
2022-11-25T06:41:02.296Z,11.48
2022-11-25T06:43:29.485Z,10.57
2022-11-25T06:46:08.819Z,8.68
2022-11-25T06:48:36.156Z,9.98
2022-11-25T06:51:05.621Z,7.95
2022-11-25T06:53:33.061Z,11.40
2022-11-25T06:56:05.905Z,14.63
2022-11-25T06:58:36.556Z,8.60
2022-11-25T07:01:20.802Z,12.18
2022-11-25T07:03:49.300Z,10.77
2022-11-25T07:06:16.945Z,13.27
2022-11-25T07:08:44.279Z,10.35
2022-11-25T07:11:16.520Z,11.30
2022-11-25T07:13:43.389Z,10.13
2022-11-25T07:16:11.473Z,11.23
2022-11-25T07:18:39.497Z,8.32
2022-11-25T07:21:08.119Z,12.43
2022-11-25T07:23:36.152Z,6.90
2022-11-25T07:26:14.174Z,9.38
2022-11-25T07:28:41.718Z,12.57
2022-11-25T07:31:31.324Z,9.98
2022-11-25T07:34:04.432Z,9.70
2022-11-25T07:36:32.655Z,13.73
2022-11-25T07:39:01.213Z,12.82
2022-11-25T07:41:28.814Z,9.27
2022-11-25T07:44:00.820Z,13.57
2022-11-25T07:46:34.141Z,8.30
2022-11-25T07:49:04.849Z,9.45
2022-11-25T07:51:37.408Z,9.30
2022-11-25T07:54:06.299Z,14.88
2022-11-25T07:56:35.538Z,33.75
2022-11-25T07:59:02.372Z,24.00
2022-11-25T08:01:28.850Z,24.52
2022-11-25T08:04:08.675Z,22.40
2022-11-25T08:06:39.465Z,20.35
2022-11-25T08:09:06.618Z,23.73
2022-11-25T08:11:33.286Z,18.52
2022-11-25T08:13:59.838Z,13.82
2022-11-25T08:16:28.431Z,9.13
2022-11-25T08:18:55.968Z,11.70
2022-11-25T08:21:22.581Z,10.23
2022-11-25T08:23:49.271Z,10.73
2022-11-25T08:26:37.752Z,11.13
2022-11-25T08:29:07.385Z,9.40
2022-11-25T08:31:36.841Z,14.18
2022-11-25T08:34:05.919Z,11.20
2022-11-25T08:36:34.001Z,11.77
2022-11-25T08:39:12.619Z,11.85
2022-11-25T08:41:49.302Z,12.18
2022-11-25T08:44:15.683Z,11.98
2022-11-25T08:46:42.230Z,12.45
2022-11-25T08:49:09.771Z,9.27
2022-11-25T08:51:37.869Z,11.00
2022-11-25T08:54:06.304Z,10.32
2022-11-25T08:56:32.849Z,9.65
2022-11-25T08:59:00.045Z,8.98
2022-11-25T09:01:38.507Z,9.15
2022-11-25T09:04:05.003Z,10.88
2022-11-25T09:06:31.352Z,9.05
2022-11-25T09:08:58.789Z,12.57
2022-11-25T09:11:31.391Z,13.10
2022-11-25T09:13:57.852Z,25.27
2022-11-25T09:16:26.644Z,35.42
2022-11-25T09:18:56.055Z,33.13
2022-11-25T09:21:24.671Z,66.55
2022-11-25T09:23:52.163Z,65.55
2022-11-25T09:26:24.942Z,30.48
2022-11-25T09:29:03.569Z,28.60
2022-11-25T09:31:29.985Z,27.13
2022-11-25T09:33:59.442Z,36.08
2022-11-25T09:36:25.887Z,25.00
2022-11-25T09:38:52.554Z,18.52
2022-11-25T09:41:51.973Z,21.92
2022-11-25T09:44:39.722Z,32.42
2022-11-25T09:47:20.208Z,17.45
2022-11-25T09:50:03.214Z,18.33
2022-11-25T09:52:42.702Z,24.00
2022-11-25T09:55:17.166Z,30.58
2022-11-25T09:57:59.463Z,21.23
2022-11-25T10:00:36.222Z,32.58
2022-11-25T10:03:40.303Z,21.08
2022-11-25T10:06:26.342Z,24.70
2022-11-25T10:08:57.802Z,28.75
2022-11-25T10:12:11.324Z,28.60
2022-11-25T10:14:53.839Z,30.92
2022-11-25T10:17:35.003Z,19.23
2022-11-25T10:20:12.915Z,12.18
2022-11-25T10:22:55.793Z,11.10
2022-11-25T10:25:25.407Z,10.10
2022-11-25T10:27:57.785Z,8.93
2022-11-25T10:30:48.850Z,10.65
2022-11-25T10:33:33.217Z,11.43
2022-11-25T10:36:21.638Z,14.68
2022-11-25T10:39:27.924Z,13.65
2022-11-25T10:41:59.470Z,8.00
2022-11-25T10:44:29.679Z,12.30
2022-11-25T10:47:20.408Z,9.45
2022-11-25T10:50:24.443Z,10.88
2022-11-25T10:53:12.991Z,11.32
2022-11-25T10:55:47.873Z,10.13
2022-11-25T10:58:27.853Z,9.25
2022-11-25T11:01:19.872Z,10.82
2022-11-25T11:03:52.873Z,10.30
2022-11-25T11:06:36.475Z,12.38
2022-11-25T11:09:04.030Z,10.63
2022-11-25T11:11:30.769Z,11.85
2022-11-25T11:14:29.829Z,14.32
2022-11-25T11:16:57.636Z,9.98
2022-11-25T11:19:31.099Z,12.55
2022-11-25T11:22:15.528Z,12.38
2022-11-25T11:24:42.530Z,15.50
2022-11-25T11:27:23.933Z,9.48
2022-11-25T11:30:08.611Z,10.35
2022-11-25T11:32:35.110Z,9.43
2022-11-25T11:35:04.119Z,12.18
2022-11-25T11:37:42.812Z,10.52
2022-11-25T11:40:15.220Z,8.00
2022-11-25T11:43:06.046Z,9.38
2022-11-25T11:46:00.692Z,10.13
2022-11-25T11:48:38.876Z,8.85
2022-11-25T11:51:14.026Z,8.38
2022-11-25T11:53:58.752Z,6.43
2022-11-25T11:56:37.574Z,9.52
2022-11-25T11:59:32.349Z,9.48
2022-11-25T12:02:01.657Z,8.05
2022-11-25T12:04:36.417Z,8.70
2022-11-25T12:07:12.922Z,7.07
2022-11-25T12:09:50.763Z,5.80
2022-11-25T12:12:19.479Z,6.63
2022-11-25T12:14:50.979Z,9.32
2022-11-25T12:17:23.245Z,7.07
2022-11-25T12:19:56.759Z,10.52
2022-11-25T12:22:43.437Z,6.47
2022-11-25T12:25:35.437Z,5.90
2022-11-25T12:28:08.960Z,10.27
2022-11-25T12:30:44.810Z,7.78
2022-11-25T12:33:25.891Z,9.50
2022-11-25T12:36:05.786Z,8.95
2022-11-25T12:38:46.120Z,8.63
2022-11-25T12:41:26.805Z,6.13
2022-11-25T12:44:13.153Z,9.98
2022-11-25T12:46:48.899Z,7.20
2022-11-25T12:49:40.803Z,8.02
2022-11-25T12:52:32.991Z,6.90
2022-11-25T12:55:18.820Z,5.93
2022-11-25T12:57:51.218Z,9.30
2022-11-25T13:03:33.582Z,11.05
2022-11-25T13:06:28.820Z,10.13
2022-11-25T13:09:19.488Z,8.20
2022-11-25T13:12:02.823Z,6.68
2022-11-25T13:14:57.829Z,8.32
2022-11-25T13:17:25.827Z,8.40
2022-11-25T13:20:29.307Z,11.13
2022-11-25T13:23:05.754Z,7.35
2022-11-25T13:25:32.739Z,7.20
2022-11-25T13:28:01.346Z,12.82
2022-11-25T13:30:38.086Z,10.27
2022-11-25T13:33:13.320Z,8.68
2022-11-25T13:35:42.884Z,8.18
2022-11-25T13:38:34.205Z,9.50
2022-11-25T13:41:25.246Z,10.27
2022-11-25T13:44:01.978Z,12.68
2022-11-25T13:46:39.743Z,10.88
2022-11-25T13:49:21.117Z,9.70
2022-11-25T13:51:53.495Z,10.02
2022-11-25T13:54:24.260Z,7.75
2022-11-25T13:57:17.875Z,7.95
2022-11-25T13:59:44.112Z,9.55
2022-11-25T14:02:28.901Z,11.32
2022-11-25T14:05:04.851Z,14.13
2022-11-25T14:07:40.076Z,8.45
2022-11-25T14:10:47.725Z,8.85
2022-11-25T14:13:28.942Z,9.23
2022-11-25T14:16:25.406Z,11.57
2022-11-25T14:19:49.958Z,8.30
2022-11-25T14:22:31.128Z,8.70
2022-11-25T14:25:16.642Z,13.48
2022-11-25T14:27:48.258Z,10.57
2022-11-25T14:30:16.323Z,7.05
2022-11-25T14:33:08.156Z,8.18
2022-11-25T14:35:45.619Z,10.25
2022-11-25T14:38:19.506Z,11.88
2022-11-25T14:41:03.614Z,10.30
2022-11-25T14:43:34.648Z,11.88
2022-11-25T14:46:21.192Z,11.75
2022-11-25T14:49:07.638Z,10.77
2022-11-25T14:51:41.319Z,8.90
2022-11-25T14:54:08.965Z,9.68
2022-11-25T14:56:37.167Z,10.13
2022-11-25T14:59:04.177Z,7.38
2022-11-25T15:01:33.330Z,9.45
2022-11-25T15:04:07.269Z,8.13
2022-11-25T15:06:36.362Z,10.02
2022-11-25T15:09:03.985Z,8.60
2022-11-25T15:11:33.757Z,8.50
2022-11-25T15:14:05.538Z,10.95
2022-11-25T15:16:39.457Z,7.55
2022-11-25T15:19:15.659Z,10.55
2022-11-25T15:22:14.643Z,9.25
2022-11-25T15:24:48.934Z,8.70
2022-11-25T15:27:25.318Z,11.00
2022-11-25T15:29:53.653Z,10.15
2022-11-25T15:32:25.282Z,15.07
2022-11-25T15:34:53.494Z,10.15
2022-11-25T15:37:19.934Z,7.53
2022-11-25T15:39:46.945Z,10.10
2022-11-25T15:42:19.737Z,7.20
2022-11-25T15:45:11.368Z,9.00
2022-11-25T15:47:37.837Z,8.68
2022-11-25T15:50:17.566Z,12.48
2022-11-25T15:52:48.329Z,9.32
2022-11-25T15:55:34.858Z,14.00
2022-11-25T15:58:23.507Z,8.00
2022-11-25T16:01:18.016Z,8.40
2022-11-25T16:03:45.809Z,8.80
2022-11-25T16:06:26.714Z,6.40
2022-11-25T16:09:01.285Z,8.15
2022-11-25T16:11:33.655Z,9.32
2022-11-25T16:14:26.781Z,7.75
2022-11-25T16:17:05.918Z,10.10
2022-11-25T16:19:38.734Z,8.80
2022-11-25T16:22:05.733Z,12.73
2022-11-25T16:24:41.578Z,12.27
2022-11-25T16:27:23.689Z,17.17
2022-11-25T16:29:53.394Z,8.30
2022-11-25T16:32:28.536Z,7.32
2022-11-25T16:34:56.781Z,9.35
2022-11-25T16:37:24.126Z,28.08
2022-11-25T16:39:50.494Z,22.95
2022-11-25T16:42:21.526Z,19.45
2022-11-25T16:44:50.452Z,15.20
2022-11-25T16:47:18.699Z,10.50
2022-11-25T16:49:46.352Z,11.18
2022-11-25T16:52:13.318Z,15.05
2022-11-25T16:54:39.726Z,10.13
2022-11-25T16:57:07.583Z,11.70
2022-11-25T16:59:38.026Z,11.93
2022-11-25T17:02:18.147Z,12.15
2022-11-25T17:04:45.203Z,13.43
2022-11-25T17:10:00.077Z,10.98
2022-11-25T17:12:30.777Z,7.13
2022-11-25T17:14:59.770Z,12.52
2022-11-25T17:17:27.169Z,12.60
2022-11-25T17:19:53.890Z,10.48
2022-11-25T17:22:23.285Z,15.20
2022-11-25T17:24:49.746Z,11.52
2022-11-25T17:27:21.830Z,13.45
2022-11-25T17:29:48.945Z,12.45
2022-11-25T17:32:16.470Z,16.20
2022-11-25T17:34:42.921Z,14.18
2022-11-25T17:37:20.735Z,11.10
2022-11-25T17:39:47.097Z,14.57
2022-11-25T17:42:15.913Z,18.98
2022-11-25T17:44:45.885Z,13.20
2022-11-25T17:47:16.895Z,16.30
2022-11-25T17:49:43.229Z,14.63
2022-11-25T17:52:09.585Z,14.35
2022-11-25T17:54:36.318Z,14.43
2022-11-25T17:57:04.782Z,19.45
2022-11-25T17:59:33.535Z,14.68
2022-11-25T18:02:00.089Z,15.65
2022-11-25T18:04:30.213Z,19.05
2022-11-25T18:06:56.602Z,12.75
2022-11-25T18:09:23.458Z,15.55
2022-11-25T18:11:53.187Z,16.13
2022-11-25T18:14:28.264Z,12.75
2022-11-25T18:16:55.344Z,15.77
2022-11-25T18:19:22.194Z,12.98
2022-11-25T18:21:48.542Z,14.57
2022-11-25T18:24:14.876Z,12.73
2022-11-25T18:26:47.154Z,11.02
2022-11-25T18:29:16.302Z,14.00
2022-11-25T18:31:44.632Z,16.50
2022-11-25T18:34:17.910Z,14.73
2022-11-25T18:36:44.802Z,14.40
2022-11-25T18:39:12.006Z,16.02
2022-11-25T18:41:40.311Z,16.50
2022-11-25T18:44:15.547Z,16.60
2022-11-25T18:46:41.902Z,16.70
2022-11-25T18:49:12.965Z,18.83
2022-11-25T18:51:40.152Z,18.23
2022-11-25T18:54:07.984Z,17.42
2022-11-25T18:56:36.045Z,20.23
2022-11-25T18:59:03.388Z,22.33
2022-11-25T19:01:29.947Z,24.50
2022-11-25T19:03:56.706Z,22.05
2022-11-25T19:06:23.469Z,24.73
2022-11-25T19:08:52.412Z,27.05
2022-11-25T19:11:30.030Z,32.70
2022-11-25T19:14:02.726Z,27.13
2022-11-25T19:16:29.155Z,25.48
2022-11-25T19:18:55.621Z,25.23
2022-11-25T19:21:21.956Z,31.35
2022-11-25T19:23:48.801Z,29.10
2022-11-25T19:26:19.893Z,28.52
2022-11-25T19:28:49.610Z,29.45
2022-11-25T19:31:18.659Z,23.58
2022-11-25T19:33:48.764Z,26.90
2022-11-25T19:36:24.374Z,20.50
2022-11-25T19:38:51.583Z,25.17
2022-11-25T19:41:18.296Z,21.13
2022-11-25T19:43:44.671Z,19.40
2022-11-25T19:46:33.055Z,21.02
2022-11-25T19:49:04.829Z,20.35
2022-11-25T19:51:34.264Z,23.77
2022-11-25T19:54:00.580Z,21.52
2022-11-25T19:56:27.212Z,26.48
2022-11-25T19:58:54.632Z,18.38
2022-11-25T20:01:25.423Z,19.00
2022-11-25T20:03:52.000Z,17.88
2022-11-25T20:06:19.466Z,21.80
2022-11-25T20:08:46.289Z,16.92
2022-11-25T20:11:13.901Z,23.30
2022-11-25T20:13:41.265Z,16.33
2022-11-25T20:16:26.579Z,19.02
2022-11-25T20:18:53.467Z,20.63
2022-11-25T20:21:36.414Z,18.52
2022-11-25T20:24:05.261Z,18.35
2022-11-25T20:26:35.987Z,18.75
2022-11-25T20:29:10.433Z,16.75
2022-11-25T20:31:36.813Z,15.23
2022-11-25T20:34:03.224Z,17.55
2022-11-25T20:36:32.060Z,18.20
2022-11-25T20:39:00.129Z,21.02
2022-11-25T20:41:28.309Z,21.05
2022-11-25T20:43:56.200Z,17.10
2022-11-25T20:46:26.894Z,16.25
2022-11-25T20:48:55.799Z,20.98
2022-11-25T20:51:23.798Z,19.67
2022-11-25T20:53:53.085Z,15.75
2022-11-25T20:56:21.835Z,21.15
2022-11-25T20:58:48.475Z,22.33
2022-11-25T21:01:15.482Z,28.40
2022-11-25T21:03:42.591Z,41.80
2022-11-25T21:06:27.586Z,53.95
2022-11-25T21:08:55.603Z,45.90
2022-11-25T21:11:22.801Z,43.40
2022-11-25T21:13:50.171Z,45.13
2022-11-25T21:16:16.546Z,43.22
2022-11-25T21:18:43.177Z,42.95
2022-11-25T21:21:18.696Z,37.88
2022-11-25T21:23:46.995Z,37.30
2022-11-25T21:26:26.520Z,34.70
2022-11-25T21:28:54.483Z,35.53
2022-11-25T21:31:24.390Z,32.97
2022-11-25T21:33:56.334Z,37.72
2022-11-25T21:36:27.440Z,32.10
2022-11-25T21:39:23.272Z,33.38
2022-11-25T21:41:49.878Z,31.30
2022-11-25T21:44:25.679Z,29.63
2022-11-25T21:49:20.329Z,28.13
2022-11-25T21:51:46.727Z,28.92
2022-11-25T21:54:13.039Z,27.77
2022-11-25T21:56:39.938Z,26.65
2022-11-25T21:59:07.960Z,24.77
2022-11-25T22:01:34.346Z,24.35
2022-11-25T22:04:00.708Z,27.13
2022-11-25T22:06:29.165Z,22.83
2022-11-25T22:08:56.618Z,29.33
2022-11-25T22:11:34.078Z,32.28
2022-11-25T22:14:04.621Z,43.05
2022-11-25T22:16:34.434Z,47.65
2022-11-25T22:19:01.315Z,35.67
2022-11-25T22:21:27.676Z,29.63
2022-11-25T22:23:53.990Z,35.90
2022-11-25T22:26:29.866Z,40.22
2022-11-25T22:28:57.093Z,36.53
2022-11-25T22:31:24.515Z,39.13
2022-11-25T22:33:51.193Z,39.60
2022-11-25T22:36:39.852Z,37.42
2022-11-25T22:39:14.829Z,36.80
2022-11-25T22:41:44.485Z,28.52
2022-11-25T22:44:20.775Z,31.42
2022-11-25T22:46:48.418Z,27.23
2022-11-25T22:49:33.329Z,22.30
2022-11-25T22:52:00.180Z,25.95
2022-11-25T22:54:26.530Z,24.80
2022-11-25T22:56:53.062Z,22.48
2022-11-25T22:59:19.446Z,20.27
2022-11-25T23:01:46.278Z,21.90
2022-11-25T23:04:16.948Z,20.15
2022-11-25T23:06:44.063Z,20.33
2022-11-25T23:09:15.342Z,22.55
2022-11-25T23:11:42.097Z,21.45
2022-11-25T23:14:08.754Z,23.23
2022-11-25T23:16:35.119Z,23.98
2022-11-25T23:19:04.309Z,21.33
2022-11-25T23:21:31.045Z,21.25
2022-11-25T23:23:57.536Z,22.00
2022-11-25T23:26:23.991Z,21.92
2022-11-25T23:28:50.343Z,21.33
2022-11-25T23:31:16.919Z,22.48
2022-11-25T23:33:45.997Z,26.15
2022-11-25T23:36:17.483Z,31.45
2022-11-25T23:38:56.264Z,31.38
2022-11-25T23:41:30.927Z,36.25
2022-11-25T23:44:01.931Z,42.83
2022-11-25T23:46:34.145Z,52.70
2022-11-25T23:49:02.521Z,41.00
2022-11-25T23:51:30.148Z,41.47
2022-11-25T23:53:58.100Z,52.35
2022-11-25T23:56:26.837Z,44.65
2022-11-25T23:58:53.184Z,37.80
